Time;durP1;ratioP1;P1;durP2;ratioP2;P2;SDS_P1;SDS_P2;PMS_P1;PMS_P2;Temp;Humidity;BMP_temperature;BMP_pressure;BME280_temperature;BME280_humidity;BME280_pressure;Samples;Min_cycle;Max_cycle;Signal;HPM_P1;HPM_P2
2022/07/11 07:26:24;;;;;;;2.67;1.63;;;;;;;;;;6233800;23;20028;-86
2022/07/11 07:28:50;;;;;;;2.63;2.17;;;;;;;;;;6237025;23;20009;-88
2022/07/11 07:31:15;;;;;;;3.08;2.03;;;;;;;;;;6231393;23;20016;-88
2022/07/11 07:33:41;;;;;;;4.03;1.90;;;;;;;;;;6207932;23;20012;-87
2022/07/11 07:36:07;;;;;;;2.08;1.95;;;;;;;;;;6230935;23;20028;-82
2022/07/11 07:38:32;;;;;;;1.95;1.75;;;;;;;;;;6223137;23;20001;-83
2022/07/11 07:40:58;;;;;;;2.83;2.00;;;;;;;;;;6222122;23;20001;-84
2022/07/11 07:43:23;;;;;;;2.00;1.90;;;;;;;;;;6222113;23;20004;-81
2022/07/11 07:45:49;;;;;;;2.72;1.85;;;;;;;;;;6220419;23;20000;-83
2022/07/11 07:48:14;;;;;;;3.85;2.00;;;;;;;;;;6221695;23;20001;-86
2022/07/11 07:50:40;;;;;;;2.30;2.00;;;;;;;;;;6223471;23;20003;-83
2022/07/11 07:53:07;;;;;;;2.03;1.92;;;;;;;;;;6221267;23;20327;-82
2022/07/11 07:55:33;;;;;;;2.97;2.20;;;;;;;;;;6221287;23;19996;-88
2022/07/11 07:57:59;;;;;;;3.22;2.22;;;;;;;;;;6224080;23;20012;-86
2022/07/11 08:03:08;;;;;;;2.13;1.90;;;;;;;;;;6222319;23;20067;-85
2022/07/11 16:59:11;;;;;;;4.85;2.72;;;;;;;;;;6190167;23;20008;-85
2022/07/11 17:01:36;;;;;;;4.40;2.90;;;;;;;;;;6217747;23;20036;-82
2022/07/11 17:04:03;;;;;;;3.10;2.80;;;;;;;;;;6217494;23;20335;-80
2022/07/11 17:06:28;;;;;;;5.15;3.00;;;;;;;;;;6217618;23;20004;-82
2022/07/11 17:08:54;;;;;;;3.45;2.55;;;;;;;;;;6217922;23;20005;-83
2022/07/11 17:11:19;;;;;;;2.78;2.38;;;;;;;;;;6217556;23;20161;-80
2022/07/11 17:13:45;;;;;;;3.78;2.70;;;;;;;;;;6217598;23;20000;-86
2022/07/11 17:16:11;;;;;;;4.10;2.60;;;;;;;;;;6217544;23;20036;-79
2022/07/11 17:18:37;;;;;;;2.80;2.25;;;;;;;;;;6217577;23;20004;-81
2022/07/11 17:21:04;;;;;;;2.60;2.40;;;;;;;;;;6217449;23;20008;-80
2022/07/11 17:23:30;;;;;;;4.20;2.20;;;;;;;;;;6217699;23;20005;-85
2022/07/11 17:25:56;;;;;;;3.15;2.63;;;;;;;;;;6217246;23;20435;-80
2022/07/11 17:28:21;;;;;;;5.20;2.92;;;;;;;;;;6217465;23;20011;-80
2022/07/11 17:30:49;;;;;;;4.03;2.83;;;;;;;;;;6217803;23;20091;-81
2022/07/11 17:33:14;;;;;;;3.38;2.90;;;;;;;;;;6217558;23;20001;-81
2022/07/11 17:35:40;;;;;;;4.28;3.95;;;;;;;;;;6217484;23;20075;-80
2022/07/11 17:38:06;;;;;;;5.22;3.03;;;;;;;;;;6217359;23;20005;-80
2022/07/11 17:40:32;;;;;;;4.65;2.95;;;;;;;;;;6217166;23;20011;-86
2022/07/11 17:42:58;;;;;;;3.70;2.65;;;;;;;;;;6217355;23;20076;-80
2022/07/11 17:45:24;;;;;;;3.60;2.45;;;;;;;;;;6217461;23;20005;-80
2022/07/11 17:47:50;;;;;;;2.78;2.30;;;;;;;;;;6217582;23;20004;-80
2022/07/11 17:50:15;;;;;;;5.03;2.60;;;;;;;;;;6217254;23;20011;-79
2022/07/11 17:52:42;;;;;;;2.53;2.33;;;;;;;;;;6217217;23;20000;-80
2022/07/11 17:55:10;;;;;;;3.13;2.38;;;;;;;;;;6217056;23;20332;-80
2022/07/11 17:57:35;;;;;;;2.50;2.30;;;;;;;;;;6217468;23;20008;-80
2022/07/11 18:00:06;;;;;;;4.15;2.45;;;;;;;;;;6217006;23;20016;-80
2022/07/11 18:02:32;;;;;;;7.47;2.78;;;;;;;;;;6217090;23;20004;-80
2022/07/11 18:04:58;;;;;;;3.53;2.80;;;;;;;;;;6217199;23;20008;-80
2022/07/11 18:07:25;;;;;;;3.78;2.40;;;;;;;;;;6217345;23;20432;-80
2022/07/11 18:09:54;;;;;;;5.25;2.30;;;;;;;;;;6216959;23;20008;-81
2022/07/11 18:12:23;;;;;;;3.03;2.30;;;;;;;;;;6217195;23;20079;-81
2022/07/11 18:14:53;;;;;;;2.97;2.25;;;;;;;;;;6217373;23;20305;-80
2022/07/11 18:17:19;;;;;;;2.50;2.22;;;;;;;;;;6219862;23;20408;-80
2022/07/11 18:19:46;;;;;;;2.55;2.33;;;;;;;;;;6219501;23;20004;-79
2022/07/11 18:22:11;;;;;;;2.38;1.92;;;;;;;;;;6220853;23;20016;-78
2022/07/11 18:24:37;;;;;;;3.03;2.50;;;;;;;;;;6219863;23;20139;-81
2022/07/11 18:27:06;;;;;;;2.20;2.00;;;;;;;;;;6218165;23;20011;-81
2022/07/11 18:29:33;;;;;;;2.20;2.00;;;;;;;;;;6219265;23;20001;-81
2022/07/11 18:32:01;;;;;;;2.80;2.10;;;;;;;;;;6219191;23;19997;-81
2022/07/11 18:34:27;;;;;;;2.90;2.30;;;;;;;;;;6217579;23;20359;-82
2022/07/11 18:36:52;;;;;;;2.38;2.17;;;;;;;;;;6218342;23;20003;-88
2022/07/11 18:42:02;;;;;;;5.50;3.97;;;;;;;;;;6221816;23;20052;-82
2022/07/11 18:44:28;;;;;;;4.07;3.35;;;;;;;;;;6219070;23;20375;-86
2022/07/11 18:46:53;;;;;;;4.25;2.78;;;;;;;;;;6217279;23;20036;-85
2022/07/11 18:49:19;;;;;;;4.63;2.72;;;;;;;;;;6216865;23;20005;-85
2022/07/11 18:51:44;;;;;;;3.65;3.33;;;;;;;;;;6216626;23;20007;-84
2022/07/11 18:54:09;;;;;;;4.50;4.05;;;;;;;;;;6218949;23;20005;-85
2022/07/11 18:56:37;;;;;;;2.80;2.60;;;;;;;;;;6226795;23;20001;-93
2022/07/11 18:59:02;;;;;;;3.97;2.92;;;;;;;;;;6191714;23;20012;-93
2022/07/11 19:01:28;;;;;;;3.63;3.08;;;;;;;;;;6216812;23;20455;-94
2022/07/11 19:03:54;;;;;;;3.08;2.78;;;;;;;;;;6216497;23;20000;-88
2022/07/11 19:06:19;;;;;;;3.38;2.75;;;;;;;;;;6217319;23;20011;-88
2022/07/11 19:08:45;;;;;;;3.45;2.20;;;;;;;;;;6218225;23;20007;-84
2022/07/11 19:11:10;;;;;;;2.45;2.25;;;;;;;;;;6216884;23;20032;-87
2022/07/11 19:13:36;;;;;;;3.20;2.85;;;;;;;;;;6216249;23;20005;-88
2022/07/11 19:16:02;;;;;;;4.32;2.85;;;;;;;;;;6189862;23;20435;-86
2022/07/11 19:18:27;;;;;;;4.03;2.70;;;;;;;;;;6189602;23;20005;-89
2022/07/11 19:20:53;;;;;;;2.70;2.40;;;;;;;;;;6216474;23;20000;-85
2022/07/11 19:23:18;;;;;;;3.05;2.53;;;;;;;;;;6216087;23;20139;-83
2022/07/11 19:25:44;;;;;;;3.40;3.10;;;;;;;;;;6216458;23;20011;-85
2022/07/11 19:28:10;;;;;;;2.70;2.15;;;;;;;;;;6216443;23;20005;-83
2022/07/11 19:30:36;;;;;;;2.88;2.08;;;;;;;;;;6216143;23;20074;-86
2022/07/11 19:33:02;;;;;;;3.55;2.30;;;;;;;;;;6216090;23;20301;-85
2022/07/11 19:35:28;;;;;;;3.15;2.28;;;;;;;;;;6216154;23;20067;-83
2022/07/11 19:37:54;;;;;;;2.67;2.40;;;;;;;;;;6216095;23;20012;-84
2022/07/11 19:40:19;;;;;;;2.53;2.33;;;;;;;;;;6215837;23;20332;-83
2022/07/11 19:42:45;;;;;;;2.95;2.47;;;;;;;;;;6215986;23;20000;-82
2022/07/11 19:45:13;;;;;;;2.70;2.50;;;;;;;;;;6216085;23;20011;-84
2022/07/11 19:47:42;;;;;;;3.15;2.65;;;;;;;;;;6216020;23;20051;-83
2022/07/11 19:50:10;;;;;;;4.57;2.10;;;;;;;;;;6216019;23;20012;-84
2022/07/11 19:52:43;;;;;;;2.50;2.27;;;;;;;;;;6216295;23;20024;-83
2022/07/11 19:57:53;;;;;;;2.97;2.70;;;;;;;;;;6215832;23;20086;-83
2022/07/11 20:00:19;;;;;;;2.80;2.60;;;;;;;;;;6215866;23;20091;-82
2022/07/11 20:02:46;;;;;;;3.08;2.25;;;;;;;;;;6215871;23;20000;-82
2022/07/11 20:05:12;;;;;;;4.80;2.40;;;;;;;;;;6216132;23;20000;-82
2022/07/11 20:07:37;;;;;;;2.70;2.17;;;;;;;;;;6215938;23;20379;-82
2022/07/11 20:10:03;;;;;;;3.22;2.40;;;;;;;;;;6216113;23;20316;-81
2022/07/11 20:12:29;;;;;;;3.00;2.03;;;;;;;;;;6215933;23;19993;-81
2022/07/11 20:14:54;;;;;;;2.50;1.85;;;;;;;;;;6215913;23;20001;-80
2022/07/11 20:17:20;;;;;;;2.47;2.03;;;;;;;;;;6215911;23;20404;-82
2022/07/11 20:19:45;;;;;;;2.20;2.00;;;;;;;;;;6216116;23;20005;-83
2022/07/11 20:22:11;;;;;;;5.93;2.40;;;;;;;;;;6215966;23;20080;-81
2022/07/11 20:24:37;;;;;;;3.90;2.20;;;;;;;;;;6215860;23;20001;-82
2022/07/11 20:27:02;;;;;;;2.40;2.20;;;;;;;;;;6216260;23;20005;-82
2022/07/11 20:29:28;;;;;;;2.55;2.10;;;;;;;;;;6216008;23;20004;-84
2022/07/11 20:31:54;;;;;;;2.95;2.20;;;;;;;;;;6215616;23;20435;-82
2022/07/11 20:34:20;;;;;;;3.30;2.30;;;;;;;;;;6215546;23;20001;-82
2022/07/11 20:36:46;;;;;;;3.58;2.75;;;;;;;;;;6215672;23;20031;-81
2022/07/11 20:39:12;;;;;;;4.20;2.40;;;;;;;;;;6215977;23;20415;-82
2022/07/11 20:41:38;;;;;;;2.28;2.05;;;;;;;;;;6189343;23;20028;-83
2022/07/11 20:44:03;;;;;;;2.92;1.92;;;;;;;;;;6215852;23;20321;-83
2022/07/11 20:46:29;;;;;;;5.60;2.60;;;;;;;;;;6215980;23;20415;-83
2022/07/11 20:48:54;;;;;;;2.92;2.28;;;;;;;;;;6189310;23;20424;-83
2022/07/11 20:51:19;;;;;;;3.83;2.28;;;;;;;;;;6215902;23;20324;-83
2022/07/11 20:53:45;;;;;;;2.92;2.28;;;;;;;;;;6215809;23;20000;-82
2022/07/11 20:56:10;;;;;;;6.40;2.35;;;;;;;;;;6215819;23;20005;-82
2022/07/11 20:58:36;;;;;;;4.43;1.90;;;;;;;;;;6215476;23;20474;-82
2022/07/11 21:01:01;;;;;;;3.78;2.17;;;;;;;;;;6215696;23;20092;-81
2022/07/11 21:03:27;;;;;;;8.60;2.60;;;;;;;;;;6215921;23;20036;-82
2022/07/11 21:05:53;;;;;;;4.90;1.90;;;;;;;;;;6215934;23;20371;-82
2022/07/11 21:08:19;;;;;;;3.63;1.92;;;;;;;;;;6215942;23;20008;-82
2022/07/11 21:10:44;;;;;;;6.63;2.33;;;;;;;;;;6215630;23;20040;-81
2022/07/11 21:13:10;;;;;;;5.00;1.98;;;;;;;;;;6216183;23;20335;-82
2022/07/11 21:15:35;;;;;;;4.50;2.10;;;;;;;;;;6217750;23;20365;-81
2022/07/11 21:18:01;;;;;;;4.18;2.45;;;;;;;;;;6217752;23;20005;-82
2022/07/11 21:20:26;;;;;;;4.10;2.13;;;;;;;;;;6217580;23;20066;-82
2022/07/11 21:22:52;;;;;;;2.55;2.20;;;;;;;;;;6217678;23;20040;-81
2022/07/11 21:25:17;;;;;;;2.58;2.03;;;;;;;;;;6217314;23;20422;-81
2022/07/11 21:27:43;;;;;;;4.03;2.20;;;;;;;;;;6217288;23;20404;-82
2022/07/11 21:30:08;;;;;;;3.70;2.13;;;;;;;;;;6217949;23;20062;-81
2022/07/11 21:32:34;;;;;;;3.00;1.90;;;;;;;;;;6217584;23;20032;-82
2022/07/11 21:34:59;;;;;;;3.35;2.10;;;;;;;;;;6217246;23;20004;-82
2022/07/11 21:37:29;;;;;;;2.83;1.90;;;;;;;;;;6217223;23;20030;-82
2022/07/11 21:39:54;;;;;;;;;;;;;;;;;;6217743;23;20332;-81
2022/07/11 21:42:20;;;;;;;3.55;2.35;;;;;;;;;;6190665;23;20084;-82
2022/07/11 21:44:45;;;;;;;1.75;1.63;;;;;;;;;;6217747;23;19997;-82
2022/07/11 21:47:11;;;;;;;4.88;2.45;;;;;;;;;;6217188;23;20333;-81
2022/07/11 21:49:36;;;;;;;3.60;2.20;;;;;;;;;;6217282;23;20078;-81
2022/07/11 21:52:02;;;;;;;3.38;2.35;;;;;;;;;;6217402;23;20004;-82
2022/07/11 21:54:27;;;;;;;3.17;2.17;;;;;;;;;;6217111;23;20094;-81
2022/07/11 21:56:52;;;;;;;3.22;2.25;;;;;;;;;;6216810;23;20075;-83
2022/07/11 21:59:18;;;;;;;3.45;2.35;;;;;;;;;;6216761;23;20044;-83
2022/07/11 22:01:43;;;;;;;5.45;2.55;;;;;;;;;;6217274;23;20439;-82
2022/07/11 22:04:09;;;;;;;2.58;2.10;;;;;;;;;;6217015;23;19996;-83
2022/07/11 22:06:35;;;;;;;1.98;1.70;;;;;;;;;;6217257;23;20001;-82
2022/07/11 22:09:01;;;;;;;2.65;2.03;;;;;;;;;;6217038;23;20024;-82
